Eugene, Oregon
Current Conditions -  °F | °C
As of 2:54 AM on Sunday 23 Nov 2014 (Local Time) from KEUG Reporting Station
Overcast Overcast  
Wind Chill: 42°   Ceiling: 5000
Heat Index: 45°   Visibility: 10mi
Dew Point: 43°   Wind: 6mph
Humidity: 93%   Direction: 150°SSE
Pressure: 30.35"   Gusts: NA
Location:  44.05°N, 123.08°W
Report Text: KEUG 231054Z AUTO 15005KT 10SM BKN050 OVC060 07/06 A3035 RMK AO2 SLP278 T00720061
Loading
Personal Weather Stations






























Interactive Weather Map New forecast layout! Learn more

10-Day Weather Forecast

Advertisements
Track Severe Weather on mobile